sensor_id;sensor_type;location;lat;lon;timestamp;temperature;humidity
8856;DHT22;4464;50.882;4.730;2023-05-10T00:00:21;12.70;99.90
8856;DHT22;4464;50.882;4.730;2023-05-10T00:02:48;12.70;99.90
8856;DHT22;4464;50.882;4.730;2023-05-10T00:05:14;12.70;99.90
8856;DHT22;4464;50.882;4.730;2023-05-10T00:07:42;12.60;99.90
8856;DHT22;4464;50.882;4.730;2023-05-10T00:10:13;12.70;99.90
8856;DHT22;4464;50.882;4.730;2023-05-10T00:12:39;12.70;99.90
8856;DHT22;4464;50.882;4.730;2023-05-10T00:15:05;12.60;99.90
8856;DHT22;4464;50.882;4.730;2023-05-10T00:17:31;12.70;99.90
8856;DHT22;4464;50.882;4.730;2023-05-10T00:19:56;12.70;99.90
8856;DHT22;4464;50.882;4.730;2023-05-10T00:22:23;12.70;99.90
8856;DHT22;4464;50.882;4.730;2023-05-10T00:24:48;12.60;99.90
8856;DHT22;4464;50.882;4.730;2023-05-10T00:27:14;12.70;99.90
8856;DHT22;4464;50.882;4.730;2023-05-10T00:29:42;12.70;99.90
8856;DHT22;4464;50.882;4.730;2023-05-10T00:32:10;12.70;99.90
8856;DHT22;4464;50.882;4.730;2023-05-10T00:34:36;12.70;99.90
8856;DHT22;4464;50.882;4.730;2023-05-10T00:37:01;12.70;99.90
8856;DHT22;4464;50.882;4.730;2023-05-10T00:39:27;12.70;99.90
8856;DHT22;4464;50.882;4.730;2023-05-10T00:42:00;12.70;99.90
8856;DHT22;4464;50.882;4.730;2023-05-10T00:44:26;12.70;99.90
8856;DHT22;4464;50.882;4.730;2023-05-10T00:46:52;12.70;99.90
8856;DHT22;4464;50.882;4.730;2023-05-10T00:49:19;12.70;99.90
8856;DHT22;4464;50.882;4.730;2023-05-10T00:51:46;12.70;99.90
8856;DHT22;4464;50.882;4.730;2023-05-10T00:54:12;12.70;99.90
8856;DHT22;4464;50.882;4.730;2023-05-10T00:56:39;12.70;99.90
8856;DHT22;4464;50.882;4.730;2023-05-10T00:59:06;12.70;99.90
8856;DHT22;4464;50.882;4.730;2023-05-10T01:01:33;12.70;99.90
8856;DHT22;4464;50.882;4.730;2023-05-10T01:03:59;12.70;99.90
8856;DHT22;4464;50.882;4.730;2023-05-10T01:06:28;12.70;99.90
8856;DHT22;4464;50.882;4.730;2023-05-10T01:08:54;12.70;99.90
8856;DHT22;4464;50.882;4.730;2023-05-10T01:11:21;12.60;99.90
8856;DHT22;4464;50.882;4.730;2023-05-10T01:13:54;12.70;99.90
8856;DHT22;4464;50.882;4.730;2023-05-10T01:16:24;12.60;99.90
8856;DHT22;4464;50.882;4.730;2023-05-10T01:18:51;12.60;99.90
8856;DHT22;4464;50.882;4.730;2023-05-10T01:21:48;12.70;99.90
8856;DHT22;4464;50.882;4.730;2023-05-10T01:32:43;12.80;99.90
8856;DHT22;4464;50.882;4.730;2023-05-10T01:35:31;12.70;99.90
8856;DHT22;4464;50.882;4.730;2023-05-10T01:38:28;12.70;99.90
8856;DHT22;4464;50.882;4.730;2023-05-10T01:41:14;12.70;99.90
8856;DHT22;4464;50.882;4.730;2023-05-10T01:44:01;12.70;99.90
8856;DHT22;4464;50.882;4.730;2023-05-10T01:46:35;12.80;99.90
8856;DHT22;4464;50.882;4.730;2023-05-10T01:49:14;12.70;99.90
8856;DHT22;4464;50.882;4.730;2023-05-10T01:51:46;12.70;99.90
8856;DHT22;4464;50.882;4.730;2023-05-10T01:54:17;12.70;99.90
8856;DHT22;4464;50.882;4.730;2023-05-10T01:56:55;12.80;99.90
8856;DHT22;4464;50.882;4.730;2023-05-10T01:59:22;12.80;99.90
8856;DHT22;4464;50.882;4.730;2023-05-10T02:01:52;12.80;99.90
8856;DHT22;4464;50.882;4.730;2023-05-10T02:04:20;12.70;99.90
8856;DHT22;4464;50.882;4.730;2023-05-10T02:06:50;12.70;99.90
8856;DHT22;4464;50.882;4.730;2023-05-10T02:09:17;12.70;99.90
8856;DHT22;4464;50.882;4.730;2023-05-10T02:11:44;12.70;99.90
8856;DHT22;4464;50.882;4.730;2023-05-10T02:14:14;12.80;99.90
8856;DHT22;4464;50.882;4.730;2023-05-10T02:16:41;12.80;99.90
8856;DHT22;4464;50.882;4.730;2023-05-10T02:19:08;12.80;99.90
8856;DHT22;4464;50.882;4.730;2023-05-10T02:21:38;12.80;99.90
8856;DHT22;4464;50.882;4.730;2023-05-10T02:24:05;12.80;99.90
8856;DHT22;4464;50.882;4.730;2023-05-10T02:26:33;12.80;99.90
8856;DHT22;4464;50.882;4.730;2023-05-10T02:29:01;12.80;99.90
8856;DHT22;4464;50.882;4.730;2023-05-10T02:31:30;12.80;99.90
8856;DHT22;4464;50.882;4.730;2023-05-10T02:33:58;12.80;99.90
8856;DHT22;4464;50.882;4.730;2023-05-10T02:36:27;12.90;99.90
8856;DHT22;4464;50.882;4.730;2023-05-10T02:38:56;12.90;99.90
8856;DHT22;4464;50.882;4.730;2023-05-10T02:41:25;12.90;99.90
8856;DHT22;4464;50.882;4.730;2023-05-10T02:43:52;12.90;99.90
8856;DHT22;4464;50.882;4.730;2023-05-10T02:46:21;12.90;99.90
8856;DHT22;4464;50.882;4.730;2023-05-10T02:48:47;13.00;99.90
8856;DHT22;4464;50.882;4.730;2023-05-10T02:51:16;13.00;99.90
8856;DHT22;4464;50.882;4.730;2023-05-10T02:53:46;12.90;99.90
8856;DHT22;4464;50.882;4.730;2023-05-10T02:56:19;13.00;99.90
8856;DHT22;4464;50.882;4.730;2023-05-10T02:58:50;13.00;99.90
8856;DHT22;4464;50.882;4.730;2023-05-10T03:01:17;12.90;99.90
8856;DHT22;4464;50.882;4.730;2023-05-10T03:03:42;12.90;99.90
8856;DHT22;4464;50.882;4.730;2023-05-10T03:06:08;12.90;99.90
8856;DHT22;4464;50.882;4.730;2023-05-10T03:08:35;13.00;99.90
8856;DHT22;4464;50.882;4.730;2023-05-10T03:12:01;13.00;99.90
8856;DHT22;4464;50.882;4.730;2023-05-10T03:17:13;13.00;99.90
8856;DHT22;4464;50.882;4.730;2023-05-10T03:19:56;13.00;99.90
8856;DHT22;4464;50.882;4.730;2023-05-10T03:22:34;13.00;99.90
8856;DHT22;4464;50.882;4.730;2023-05-10T03:25:05;13.00;99.90
8856;DHT22;4464;50.882;4.730;2023-05-10T03:27:36;13.00;99.90
8856;DHT22;4464;50.882;4.730;2023-05-10T03:30:02;13.00;99.90
8856;DHT22;4464;50.882;4.730;2023-05-10T03:32:29;13.00;99.90
8856;DHT22;4464;50.882;4.730;2023-05-10T03:34:57;13.00;99.90
8856;DHT22;4464;50.882;4.730;2023-05-10T03:37:23;12.90;99.90
8856;DHT22;4464;50.882;4.730;2023-05-10T03:39:48;12.90;99.90
8856;DHT22;4464;50.882;4.730;2023-05-10T03:42:14;12.80;99.90
8856;DHT22;4464;50.882;4.730;2023-05-10T03:44:43;12.80;99.90
8856;DHT22;4464;50.882;4.730;2023-05-10T03:47:08;12.80;99.90
8856;DHT22;4464;50.882;4.730;2023-05-10T03:49:36;12.80;99.90
8856;DHT22;4464;50.882;4.730;2023-05-10T03:52:02;12.60;99.90
8856;DHT22;4464;50.882;4.730;2023-05-10T03:54:28;12.60;99.90
8856;DHT22;4464;50.882;4.730;2023-05-10T03:56:54;12.50;99.90
8856;DHT22;4464;50.882;4.730;2023-05-10T03:59:19;12.50;99.90
8856;DHT22;4464;50.882;4.730;2023-05-10T04:01:45;12.60;99.90
8856;DHT22;4464;50.882;4.730;2023-05-10T04:04:11;12.50;99.90
8856;DHT22;4464;50.882;4.730;2023-05-10T04:06:37;12.50;99.90
8856;DHT22;4464;50.882;4.730;2023-05-10T04:09:03;12.50;99.90
8856;DHT22;4464;50.882;4.730;2023-05-10T04:11:29;12.50;99.90
8856;DHT22;4464;50.882;4.730;2023-05-10T04:13:57;12.50;99.90
8856;DHT22;4464;50.882;4.730;2023-05-10T04:16:23;12.40;99.90
8856;DHT22;4464;50.882;4.730;2023-05-10T04:18:49;12.40;99.90
8856;DHT22;4464;50.882;4.730;2023-05-10T04:21:17;12.30;99.90
8856;DHT22;4464;50.882;4.730;2023-05-10T04:23:42;12.40;99.90
8856;DHT22;4464;50.882;4.730;2023-05-10T04:26:08;12.40;99.90
8856;DHT22;4464;50.882;4.730;2023-05-10T04:28:36;12.30;99.90
8856;DHT22;4464;50.882;4.730;2023-05-10T04:31:05;12.40;99.90
8856;DHT22;4464;50.882;4.730;2023-05-10T04:33:33;12.30;99.90
8856;DHT22;4464;50.882;4.730;2023-05-10T04:36:00;12.30;99.90
8856;DHT22;4464;50.882;4.730;2023-05-10T04:38:27;12.30;99.90
8856;DHT22;4464;50.882;4.730;2023-05-10T04:40:53;12.30;99.90
8856;DHT22;4464;50.882;4.730;2023-05-10T04:43:22;12.30;99.90
8856;DHT22;4464;50.882;4.730;2023-05-10T04:45:48;12.40;99.90
8856;DHT22;4464;50.882;4.730;2023-05-10T04:48:13;12.40;99.90
8856;DHT22;4464;50.882;4.730;2023-05-10T04:50:39;12.40;99.90
8856;DHT22;4464;50.882;4.730;2023-05-10T04:53:07;12.40;99.90
8856;DHT22;4464;50.882;4.730;2023-05-10T04:55:33;12.40;99.90
8856;DHT22;4464;50.882;4.730;2023-05-10T04:57:58;12.40;99.90
8856;DHT22;4464;50.882;4.730;2023-05-10T05:00:26;12.40;99.90
8856;DHT22;4464;50.882;4.730;2023-05-10T05:02:54;12.50;99.90
8856;DHT22;4464;50.882;4.730;2023-05-10T05:05:20;12.40;99.90
8856;DHT22;4464;50.882;4.730;2023-05-10T05:07:46;12.50;99.90
8856;DHT22;4464;50.882;4.730;2023-05-10T05:10:12;12.50;99.90
8856;DHT22;4464;50.882;4.730;2023-05-10T05:12:42;12.50;99.90
8856;DHT22;4464;50.882;4.730;2023-05-10T05:15:08;12.40;99.90
8856;DHT22;4464;50.882;4.730;2023-05-10T05:17:39;12.50;99.90
8856;DHT22;4464;50.882;4.730;2023-05-10T05:20:05;12.40;99.90
8856;DHT22;4464;50.882;4.730;2023-05-10T05:22:31;12.40;99.90
8856;DHT22;4464;50.882;4.730;2023-05-10T05:24:57;12.50;99.90
8856;DHT22;4464;50.882;4.730;2023-05-10T05:27:27;12.60;99.90
8856;DHT22;4464;50.882;4.730;2023-05-10T05:29:53;12.60;99.90
8856;DHT22;4464;50.882;4.730;2023-05-10T05:32:19;12.60;99.90
8856;DHT22;4464;50.882;4.730;2023-05-10T05:34:48;12.50;99.90
8856;DHT22;4464;50.882;4.730;2023-05-10T05:37:14;12.50;99.90
8856;DHT22;4464;50.882;4.730;2023-05-10T05:39:41;12.50;99.90
8856;DHT22;4464;50.882;4.730;2023-05-10T05:42:11;12.50;99.90
8856;DHT22;4464;50.882;4.730;2023-05-10T05:44:37;12.40;99.90
8856;DHT22;4464;50.882;4.730;2023-05-10T05:47:03;12.50;99.90
8856;DHT22;4464;50.882;4.730;2023-05-10T05:49:29;12.50;99.90
8856;DHT22;4464;50.882;4.730;2023-05-10T05:52:02;12.50;99.90
8856;DHT22;4464;50.882;4.730;2023-05-10T05:54:33;12.50;99.90
8856;DHT22;4464;50.882;4.730;2023-05-10T05:57:00;12.60;99.90
8856;DHT22;4464;50.882;4.730;2023-05-10T05:59:28;12.50;99.90
8856;DHT22;4464;50.882;4.730;2023-05-10T06:01:54;12.60;99.90
8856;DHT22;4464;50.882;4.730;2023-05-10T06:04:20;12.60;99.90
8856;DHT22;4464;50.882;4.730;2023-05-10T06:06:46;12.60;99.90
8856;DHT22;4464;50.882;4.730;2023-05-10T06:09:11;12.60;99.90
8856;DHT22;4464;50.882;4.730;2023-05-10T06:11:40;12.60;99.90
8856;DHT22;4464;50.882;4.730;2023-05-10T06:14:08;12.60;99.90
8856;DHT22;4464;50.882;4.730;2023-05-10T06:16:34;12.60;99.90
8856;DHT22;4464;50.882;4.730;2023-05-10T06:19:03;12.60;99.90
8856;DHT22;4464;50.882;4.730;2023-05-10T06:21:30;12.60;99.90
8856;DHT22;4464;50.882;4.730;2023-05-10T06:23:59;12.60;99.90
8856;DHT22;4464;50.882;4.730;2023-05-10T06:26:30;12.60;99.90
8856;DHT22;4464;50.882;4.730;2023-05-10T06:28:55;12.80;99.90
8856;DHT22;4464;50.882;4.730;2023-05-10T06:31:21;12.80;99.90
8856;DHT22;4464;50.882;4.730;2023-05-10T06:33:47;12.80;99.90
8856;DHT22;4464;50.882;4.730;2023-05-10T06:36:13;12.80;99.90
8856;DHT22;4464;50.882;4.730;2023-05-10T06:38:41;12.90;99.90
8856;DHT22;4464;50.882;4.730;2023-05-10T06:41:07;13.00;99.90
8856;DHT22;4464;50.882;4.730;2023-05-10T06:43:33;13.00;99.90
8856;DHT22;4464;50.882;4.730;2023-05-10T06:45:59;13.10;99.90
8856;DHT22;4464;50.882;4.730;2023-05-10T06:48:29;13.10;99.90
8856;DHT22;4464;50.882;4.730;2023-05-10T06:50:58;13.10;99.90
8856;DHT22;4464;50.882;4.730;2023-05-10T06:53:24;13.20;99.90
8856;DHT22;4464;50.882;4.730;2023-05-10T06:55:52;13.20;99.90
8856;DHT22;4464;50.882;4.730;2023-05-10T06:58:18;13.30;99.90
8856;DHT22;4464;50.882;4.730;2023-05-10T07:00:44;13.30;99.90
8856;DHT22;4464;50.882;4.730;2023-05-10T07:03:13;13.40;99.90
8856;DHT22;4464;50.882;4.730;2023-05-10T07:05:41;13.40;99.90
8856;DHT22;4464;50.882;4.730;2023-05-10T07:08:07;13.40;99.90
8856;DHT22;4464;50.882;4.730;2023-05-10T07:10:33;13.50;99.90
8856;DHT22;4464;50.882;4.730;2023-05-10T07:12:58;13.50;99.90
8856;DHT22;4464;50.882;4.730;2023-05-10T07:15:26;13.40;99.90
8856;DHT22;4464;50.882;4.730;2023-05-10T07:17:52;13.50;99.90
8856;DHT22;4464;50.882;4.730;2023-05-10T07:20:18;13.60;99.90
8856;DHT22;4464;50.882;4.730;2023-05-10T07:22:46;13.50;99.90
8856;DHT22;4464;50.882;4.730;2023-05-10T07:25:14;13.40;99.90
8856;DHT22;4464;50.882;4.730;2023-05-10T07:27:40;13.50;99.90
8856;DHT22;4464;50.882;4.730;2023-05-10T07:30:06;13.60;99.90
8856;DHT22;4464;50.882;4.730;2023-05-10T07:32:34;13.50;99.90
8856;DHT22;4464;50.882;4.730;2023-05-10T07:35:00;13.40;99.90
8856;DHT22;4464;50.882;4.730;2023-05-10T07:37:26;13.40;99.90
8856;DHT22;4464;50.882;4.730;2023-05-10T07:39:56;13.50;99.90
8856;DHT22;4464;50.882;4.730;2023-05-10T07:42:24;13.30;99.90
8856;DHT22;4464;50.882;4.730;2023-05-10T07:44:50;13.30;99.90
8856;DHT22;4464;50.882;4.730;2023-05-10T07:47:16;13.20;99.90
8856;DHT22;4464;50.882;4.730;2023-05-10T07:49:42;13.20;99.90
8856;DHT22;4464;50.882;4.730;2023-05-10T07:52:08;13.30;99.90
8856;DHT22;4464;50.882;4.730;2023-05-10T07:54:34;13.30;99.90
8856;DHT22;4464;50.882;4.730;2023-05-10T07:57:03;13.20;99.90
8856;DHT22;4464;50.882;4.730;2023-05-10T07:59:28;13.20;99.90
8856;DHT22;4464;50.882;4.730;2023-05-10T08:01:54;13.10;99.90
8856;DHT22;4464;50.882;4.730;2023-05-10T08:04:20;13.00;99.90
8856;DHT22;4464;50.882;4.730;2023-05-10T08:06:46;13.00;99.90
8856;DHT22;4464;50.882;4.730;2023-05-10T08:09:11;12.90;99.90
8856;DHT22;4464;50.882;4.730;2023-05-10T08:11:37;12.90;99.90
8856;DHT22;4464;50.882;4.730;2023-05-10T08:14:03;12.90;99.90
8856;DHT22;4464;50.882;4.730;2023-05-10T08:16:31;12.90;99.90
8856;DHT22;4464;50.882;4.730;2023-05-10T08:18:57;12.90;99.90
8856;DHT22;4464;50.882;4.730;2023-05-10T08:21:25;12.90;99.90
8856;DHT22;4464;50.882;4.730;2023-05-10T08:23:53;12.90;99.90
8856;DHT22;4464;50.882;4.730;2023-05-10T08:26:19;12.80;99.90
8856;DHT22;4464;50.882;4.730;2023-05-10T08:28:49;12.80;99.90
8856;DHT22;4464;50.882;4.730;2023-05-10T08:31:15;12.70;99.90
8856;DHT22;4464;50.882;4.730;2023-05-10T08:33:41;12.80;99.90
8856;DHT22;4464;50.882;4.730;2023-05-10T08:36:09;12.70;99.90
8856;DHT22;4464;50.882;4.730;2023-05-10T08:38:35;12.70;99.90
8856;DHT22;4464;50.882;4.730;2023-05-10T08:41:02;12.80;99.90
8856;DHT22;4464;50.882;4.730;2023-05-10T08:43:29;12.90;99.90
8856;DHT22;4464;50.882;4.730;2023-05-10T08:45:58;12.80;99.90
8856;DHT22;4464;50.882;4.730;2023-05-10T08:48:29;12.90;99.90
8856;DHT22;4464;50.882;4.730;2023-05-10T08:50:58;13.00;99.90
8856;DHT22;4464;50.882;4.730;2023-05-10T08:53:29;12.90;99.90
8856;DHT22;4464;50.882;4.730;2023-05-10T08:55:56;12.80;99.90
8856;DHT22;4464;50.882;4.730;2023-05-10T08:58:25;12.80;99.90
8856;DHT22;4464;50.882;4.730;2023-05-10T09:00:50;12.80;99.90
8856;DHT22;4464;50.882;4.730;2023-05-10T09:03:16;12.70;99.90
8856;DHT22;4464;50.882;4.730;2023-05-10T09:05:46;12.60;99.90
8856;DHT22;4464;50.882;4.730;2023-05-10T09:08:12;12.70;99.90
8856;DHT22;4464;50.882;4.730;2023-05-10T09:10:39;12.60;99.90
8856;DHT22;4464;50.882;4.730;2023-05-10T09:13:05;12.60;99.90
8856;DHT22;4464;50.882;4.730;2023-05-10T09:15:32;12.60;99.90
8856;DHT22;4464;50.882;4.730;2023-05-10T09:17:58;12.60;99.90
8856;DHT22;4464;50.882;4.730;2023-05-10T09:20:27;12.70;99.90
8856;DHT22;4464;50.882;4.730;2023-05-10T09:22:53;12.80;99.90
8856;DHT22;4464;50.882;4.730;2023-05-10T09:25:21;12.80;99.90
8856;DHT22;4464;50.882;4.730;2023-05-10T09:27:48;12.70;99.90
8856;DHT22;4464;50.882;4.730;2023-05-10T09:30:32;12.70;99.90
8856;DHT22;4464;50.882;4.730;2023-05-10T09:33:01;12.80;99.90
8856;DHT22;4464;50.882;4.730;2023-05-10T09:35:29;12.70;99.90
8856;DHT22;4464;50.882;4.730;2023-05-10T09:37:57;12.80;99.90
8856;DHT22;4464;50.882;4.730;2023-05-10T09:40:25;12.80;99.90
8856;DHT22;4464;50.882;4.730;2023-05-10T09:45:18;12.90;99.90
8856;DHT22;4464;50.882;4.730;2023-05-10T09:47:45;13.00;99.90
8856;DHT22;4464;50.882;4.730;2023-05-10T09:50:10;13.00;99.90
8856;DHT22;4464;50.882;4.730;2023-05-10T09:52:57;13.00;99.90
8856;DHT22;4464;50.882;4.730;2023-05-10T09:55:25;13.10;99.90
8856;DHT22;4464;50.882;4.730;2023-05-10T09:58:03;13.10;99.90
8856;DHT22;4464;50.882;4.730;2023-05-10T10:00:35;13.10;99.90
8856;DHT22;4464;50.882;4.730;2023-05-10T10:03:04;13.10;99.90
8856;DHT22;4464;50.882;4.730;2023-05-10T10:05:34;13.00;99.90
8856;DHT22;4464;50.882;4.730;2023-05-10T10:08:03;13.20;99.90
8856;DHT22;4464;50.882;4.730;2023-05-10T10:10:29;13.10;99.90
8856;DHT22;4464;50.882;4.730;2023-05-10T10:13:01;13.20;99.90
8856;DHT22;4464;50.882;4.730;2023-05-10T10:15:28;13.20;99.90
8856;DHT22;4464;50.882;4.730;2023-05-10T10:17:54;13.30;99.90
8856;DHT22;4464;50.882;4.730;2023-05-10T10:20:21;13.30;99.90
8856;DHT22;4464;50.882;4.730;2023-05-10T10:22:48;13.20;99.90
8856;DHT22;4464;50.882;4.730;2023-05-10T10:25:17;13.10;99.90
8856;DHT22;4464;50.882;4.730;2023-05-10T10:30:25;13.20;99.90
8856;DHT22;4464;50.882;4.730;2023-05-10T10:35:44;13.40;99.90
8856;DHT22;4464;50.882;4.730;2023-05-10T10:38:12;13.30;99.90
8856;DHT22;4464;50.882;4.730;2023-05-10T10:40:38;13.30;99.90
8856;DHT22;4464;50.882;4.730;2023-05-10T10:43:22;13.40;99.90
8856;DHT22;4464;50.882;4.730;2023-05-10T10:46:16;13.30;99.90
8856;DHT22;4464;50.882;4.730;2023-05-10T10:49:09;13.30;99.90
8856;DHT22;4464;50.882;4.730;2023-05-10T10:52:12;13.30;99.90
8856;DHT22;4464;50.882;4.730;2023-05-10T10:54:28;13.30;99.90
8856;DHT22;4464;50.882;4.730;2023-05-10T10:57:11;13.30;99.90
8856;DHT22;4464;50.882;4.730;2023-05-10T10:59:43;13.50;99.90
8856;DHT22;4464;50.882;4.730;2023-05-10T11:02:44;13.60;99.90
8856;DHT22;4464;50.882;4.730;2023-05-10T11:05:48;13.80;99.90
8856;DHT22;4464;50.882;4.730;2023-05-10T11:10:51;14.00;99.90
8856;DHT22;4464;50.882;4.730;2023-05-10T11:13:33;13.90;99.90
8856;DHT22;4464;50.882;4.730;2023-05-10T11:21:23;14.70;99.90
8856;DHT22;4464;50.882;4.730;2023-05-10T11:23:54;15.20;99.90
8856;DHT22;4464;50.882;4.730;2023-05-10T11:26:23;15.60;99.90
8856;DHT22;4464;50.882;4.730;2023-05-10T11:28:54;15.90;99.90
8856;DHT22;4464;50.882;4.730;2023-05-10T11:31:26;16.00;99.90
8856;DHT22;4464;50.882;4.730;2023-05-10T11:33:57;16.40;99.90
8856;DHT22;4464;50.882;4.730;2023-05-10T11:36:32;17.00;99.90
8856;DHT22;4464;50.882;4.730;2023-05-10T11:38:58;17.80;99.90
8856;DHT22;4464;50.882;4.730;2023-05-10T11:41:26;18.00;99.90
8856;DHT22;4464;50.882;4.730;2023-05-10T11:43:54;18.00;99.90
8856;DHT22;4464;50.882;4.730;2023-05-10T11:46:22;18.30;99.90
8856;DHT22;4464;50.882;4.730;2023-05-10T11:48:50;18.10;99.90
8856;DHT22;4464;50.882;4.730;2023-05-10T11:51:25;18.20;99.90
8856;DHT22;4464;50.882;4.730;2023-05-10T11:53:54;17.50;99.90
8856;DHT22;4464;50.882;4.730;2023-05-10T11:56:20;17.60;99.90
8856;DHT22;4464;50.882;4.730;2023-05-10T11:58:55;17.90;99.90
8856;DHT22;4464;50.882;4.730;2023-05-10T12:01:22;18.20;99.90
8856;DHT22;4464;50.882;4.730;2023-05-10T12:03:50;17.90;99.90
8856;DHT22;4464;50.882;4.730;2023-05-10T12:06:17;17.80;99.90
8856;DHT22;4464;50.882;4.730;2023-05-10T12:08:47;17.50;99.90
8856;DHT22;4464;50.882;4.730;2023-05-10T12:11:14;17.50;99.90
8856;DHT22;4464;50.882;4.730;2023-05-10T12:13:43;17.60;99.90
8856;DHT22;4464;50.882;4.730;2023-05-10T12:16:20;17.50;99.90
8856;DHT22;4464;50.882;4.730;2023-05-10T12:18:50;17.90;99.90
8856;DHT22;4464;50.882;4.730;2023-05-10T12:21:20;18.10;99.90
8856;DHT22;4464;50.882;4.730;2023-05-10T12:23:51;18.00;99.90
8856;DHT22;4464;50.882;4.730;2023-05-10T12:26:28;17.90;99.90
8856;DHT22;4464;50.882;4.730;2023-05-10T12:29:17;18.40;99.90
8856;DHT22;4464;50.882;4.730;2023-05-10T12:31:59;19.00;99.90
8856;DHT22;4464;50.882;4.730;2023-05-10T12:34:35;19.30;99.90
8856;DHT22;4464;50.882;4.730;2023-05-10T12:37:07;18.70;99.90
8856;DHT22;4464;50.882;4.730;2023-05-10T12:39:43;18.70;99.90
8856;DHT22;4464;50.882;4.730;2023-05-10T12:42:09;18.60;99.90
8856;DHT22;4464;50.882;4.730;2023-05-10T12:44:35;18.50;99.90
8856;DHT22;4464;50.882;4.730;2023-05-10T12:47:01;18.50;99.90
8856;DHT22;4464;50.882;4.730;2023-05-10T12:49:31;18.40;99.90
8856;DHT22;4464;50.882;4.730;2023-05-10T12:51:57;18.20;99.90
8856;DHT22;4464;50.882;4.730;2023-05-10T12:54:23;18.00;99.90
8856;DHT22;4464;50.882;4.730;2023-05-10T12:56:49;17.60;99.90
8856;DHT22;4464;50.882;4.730;2023-05-10T12:59:15;17.40;99.90
8856;DHT22;4464;50.882;4.730;2023-05-10T13:01:40;17.10;99.90
8856;DHT22;4464;50.882;4.730;2023-05-10T13:04:06;17.00;99.90
8856;DHT22;4464;50.882;4.730;2023-05-10T13:06:32;17.20;99.90
8856;DHT22;4464;50.882;4.730;2023-05-10T13:08:58;17.40;99.90
8856;DHT22;4464;50.882;4.730;2023-05-10T13:11:26;17.10;99.90
8856;DHT22;4464;50.882;4.730;2023-05-10T13:13:54;17.40;99.90
8856;DHT22;4464;50.882;4.730;2023-05-10T13:16:23;17.70;99.90
8856;DHT22;4464;50.882;4.730;2023-05-10T13:18:49;18.00;99.90
8856;DHT22;4464;50.882;4.730;2023-05-10T13:21:14;17.90;99.90
8856;DHT22;4464;50.882;4.730;2023-05-10T13:23:42;17.90;99.90
8856;DHT22;4464;50.882;4.730;2023-05-10T13:26:08;17.70;99.90
8856;DHT22;4464;50.882;4.730;2023-05-10T13:28:34;17.80;99.90
8856;DHT22;4464;50.882;4.730;2023-05-10T13:31:00;17.70;99.90
8856;DHT22;4464;50.882;4.730;2023-05-10T13:33:26;17.70;99.90
8856;DHT22;4464;50.882;4.730;2023-05-10T13:35:51;17.70;99.90
8856;DHT22;4464;50.882;4.730;2023-05-10T13:38:20;17.60;99.90
8856;DHT22;4464;50.882;4.730;2023-05-10T13:40:46;17.40;99.90
8856;DHT22;4464;50.882;4.730;2023-05-10T13:43:11;17.20;99.90
8856;DHT22;4464;50.882;4.730;2023-05-10T13:45:40;17.20;99.90
8856;DHT22;4464;50.882;4.730;2023-05-10T13:48:06;17.60;99.90
8856;DHT22;4464;50.882;4.730;2023-05-10T13:50:32;17.60;99.90
8856;DHT22;4464;50.882;4.730;2023-05-10T13:52:58;17.40;99.90
8856;DHT22;4464;50.882;4.730;2023-05-10T13:55:23;17.30;99.90
8856;DHT22;4464;50.882;4.730;2023-05-10T13:57:49;17.30;99.90
8856;DHT22;4464;50.882;4.730;2023-05-10T14:00:15;17.50;99.90
8856;DHT22;4464;50.882;4.730;2023-05-10T14:02:41;17.60;99.90
8856;DHT22;4464;50.882;4.730;2023-05-10T14:05:07;17.40;99.90
8856;DHT22;4464;50.882;4.730;2023-05-10T14:07:33;17.30;99.90
8856;DHT22;4464;50.882;4.730;2023-05-10T14:09:59;17.40;99.90
8856;DHT22;4464;50.882;4.730;2023-05-10T14:12:24;17.60;99.90
8856;DHT22;4464;50.882;4.730;2023-05-10T14:14:50;17.70;99.90
8856;DHT22;4464;50.882;4.730;2023-05-10T14:17:16;17.60;99.90
8856;DHT22;4464;50.882;4.730;2023-05-10T14:19:42;17.60;99.90
8856;DHT22;4464;50.882;4.730;2023-05-10T14:22:08;17.60;99.90
8856;DHT22;4464;50.882;4.730;2023-05-10T14:24:33;17.80;99.90
8856;DHT22;4464;50.882;4.730;2023-05-10T14:26:59;18.00;99.90
8856;DHT22;4464;50.882;4.730;2023-05-10T14:29:25;18.50;99.90
8856;DHT22;4464;50.882;4.730;2023-05-10T14:31:54;18.50;99.90
8856;DHT22;4464;50.882;4.730;2023-05-10T14:34:22;18.70;99.90
8856;DHT22;4464;50.882;4.730;2023-05-10T14:36:48;18.50;99.90
8856;DHT22;4464;50.882;4.730;2023-05-10T14:39:13;18.90;99.90
8856;DHT22;4464;50.882;4.730;2023-05-10T14:41:39;18.70;99.90
8856;DHT22;4464;50.882;4.730;2023-05-10T14:44:08;18.70;99.90
8856;DHT22;4464;50.882;4.730;2023-05-10T14:46:34;18.40;99.90
8856;DHT22;4464;50.882;4.730;2023-05-10T14:49:02;18.50;99.90
8856;DHT22;4464;50.882;4.730;2023-05-10T14:51:30;18.40;99.90
8856;DHT22;4464;50.882;4.730;2023-05-10T14:53:59;18.60;99.90
8856;DHT22;4464;50.882;4.730;2023-05-10T14:56:25;18.60;99.90
8856;DHT22;4464;50.882;4.730;2023-05-10T14:58:51;18.70;99.90
8856;DHT22;4464;50.882;4.730;2023-05-10T15:01:19;18.50;99.90
8856;DHT22;4464;50.882;4.730;2023-05-10T15:03:45;18.40;99.90
8856;DHT22;4464;50.882;4.730;2023-05-10T15:06:13;17.90;99.90
8856;DHT22;4464;50.882;4.730;2023-05-10T15:08:44;17.70;99.90
8856;DHT22;4464;50.882;4.730;2023-05-10T15:11:10;17.80;99.90
8856;DHT22;4464;50.882;4.730;2023-05-10T15:13:35;17.90;99.90
8856;DHT22;4464;50.882;4.730;2023-05-10T15:16:01;17.80;99.90
8856;DHT22;4464;50.882;4.730;2023-05-10T15:18:27;17.70;99.90
8856;DHT22;4464;50.882;4.730;2023-05-10T15:20:52;17.50;99.90
8856;DHT22;4464;50.882;4.730;2023-05-10T15:23:18;17.40;99.90
8856;DHT22;4464;50.882;4.730;2023-05-10T15:25:44;17.30;99.90
8856;DHT22;4464;50.882;4.730;2023-05-10T15:28:10;17.30;99.90
8856;DHT22;4464;50.882;4.730;2023-05-10T15:30:35;17.60;99.90
8856;DHT22;4464;50.882;4.730;2023-05-10T15:33:07;17.80;99.90
8856;DHT22;4464;50.882;4.730;2023-05-10T15:35:34;18.00;99.90
8856;DHT22;4464;50.882;4.730;2023-05-10T15:38:01;18.30;99.90
8856;DHT22;4464;50.882;4.730;2023-05-10T15:40:31;18.30;99.90
8856;DHT22;4464;50.882;4.730;2023-05-10T15:42:57;18.20;99.90
8856;DHT22;4464;50.882;4.730;2023-05-10T15:45:23;18.10;99.90
8856;DHT22;4464;50.882;4.730;2023-05-10T15:47:49;18.00;99.90
8856;DHT22;4464;50.882;4.730;2023-05-10T15:50:16;17.60;99.90
8856;DHT22;4464;50.882;4.730;2023-05-10T15:52:44;17.30;99.90
8856;DHT22;4464;50.882;4.730;2023-05-10T15:55:10;16.60;99.90
8856;DHT22;4464;50.882;4.730;2023-05-10T15:57:42;16.30;99.90
8856;DHT22;4464;50.882;4.730;2023-05-10T16:00:12;16.20;99.90
8856;DHT22;4464;50.882;4.730;2023-05-10T16:02:40;15.90;99.90
8856;DHT22;4464;50.882;4.730;2023-05-10T16:05:07;15.80;99.90
8856;DHT22;4464;50.882;4.730;2023-05-10T16:07:34;15.60;99.90
8856;DHT22;4464;50.882;4.730;2023-05-10T16:10:02;15.50;99.90
8856;DHT22;4464;50.882;4.730;2023-05-10T16:12:30;15.30;99.90
8856;DHT22;4464;50.882;4.730;2023-05-10T16:14:56;15.30;99.90
8856;DHT22;4464;50.882;4.730;2023-05-10T16:17:22;15.20;99.90
8856;DHT22;4464;50.882;4.730;2023-05-10T16:19:48;15.00;99.90
8856;DHT22;4464;50.882;4.730;2023-05-10T16:22:15;14.80;99.90
8856;DHT22;4464;50.882;4.730;2023-05-10T16:24:41;14.80;99.90
8856;DHT22;4464;50.882;4.730;2023-05-10T16:27:10;14.70;99.90
8856;DHT22;4464;50.882;4.730;2023-05-10T16:29:40;14.60;99.90
8856;DHT22;4464;50.882;4.730;2023-05-10T16:32:05;14.70;99.90
8856;DHT22;4464;50.882;4.730;2023-05-10T16:34:36;14.70;99.90
8856;DHT22;4464;50.882;4.730;2023-05-10T16:37:01;14.70;99.90